Time;durP1;ratioP1;P1;durP2;ratioP2;P2;SDS_P1;SDS_P2;PMS_P1;PMS_P2;Temp;Humidity;BMP_temperature;BMP_pressure;BME280_temperature;BME280_humidity;BME280_pressure;Samples;Min_cycle;Max_cycle;Signal;HPM_P1;HPM_P2
2022/12/25 00:00:33;;;;;;;81.50;41.63;;;;;;;7.07;100.00;98937.69;5029140;28;20064;-65
2022/12/25 00:02:59;;;;;;;77.13;41.13;;;;;;;7.03;100.00;98944.84;5025084;28;20029;-62
2022/12/25 00:05:24;;;;;;;78.72;41.63;;;;;;;7.03;100.00;98944.03;5040152;28;20377;-64
2022/12/25 00:07:50;;;;;;;81.00;41.75;;;;;;;6.96;100.00;98953.19;5025175;28;20731;-62
2022/12/25 00:10:15;;;;;;;82.20;41.35;;;;;;;6.91;100.00;98948.34;5025875;28;20052;-62
2022/12/25 00:12:41;;;;;;;80.03;41.00;;;;;;;6.98;100.00;98948.72;5009581;28;20021;-64
2022/12/25 00:15:07;;;;;;;85.38;41.42;;;;;;;6.68;100.00;98904.34;5006060;28;20498;-64
2022/12/25 00:17:32;;;;;;;77.80;40.78;;;;;;;6.77;100.00;98922.69;5005882;28;20625;-64
2022/12/25 00:19:58;;;;;;;79.05;40.78;;;;;;;6.76;100.00;98944.31;5028400;28;20037;-65
2022/12/25 00:22:23;;;;;;;78.38;41.90;;;;;;;6.53;100.00;98905.44;5026848;28;20057;-63
2022/12/25 00:24:49;;;;;;;82.20;42.00;;;;;;;6.78;100.00;98952.75;5019011;28;20482;-63
2022/12/25 00:27:14;;;;;;;80.63;41.35;;;;;;;6.43;100.00;98883.81;5009666;28;20030;-63
2022/12/25 00:29:40;;;;;;;84.18;42.22;;;;;;;6.77;100.00;98935.59;4997084;28;20030;-65
2022/12/25 00:32:05;;;;;;;79.38;41.03;;;;;;;6.76;100.00;98928.81;5018684;28;20061;-62
2022/12/25 00:34:31;;;;;;;78.65;39.40;;;;;;;6.73;100.00;98928.09;5014155;28;20032;-63
2022/12/25 00:36:56;;;;;;;75.78;39.42;;;;;;;6.77;100.00;98935.59;5028668;28;20024;-63
2022/12/25 00:39:22;;;;;;;69.07;37.28;;;;;;;6.43;100.00;98889.81;5023362;28;20060;-64
2022/12/25 00:44:31;;;;;;;80.38;40.33;;;;;;;6.66;100.00;98926.88;5019889;28;20479;-64
2022/12/25 00:46:56;;;;;;;70.43;38.75;;;;;;;6.64;100.00;98936.50;5020461;28;20022;-63
2022/12/25 00:49:22;;;;;;;77.53;39.15;;;;;;;6.51;100.00;98940.91;5011210;28;20136;-65
2022/12/25 00:51:51;;;;;;;78.88;39.88;;;;;;;6.21;100.00;98906.03;5007819;28;20034;-64
2022/12/25 00:54:17;;;;;;;73.97;38.90;;;;;;;6.35;100.00;98954.94;5009180;28;20127;-63
2022/12/25 00:56:43;;;;;;;70.50;36.90;;;;;;;6.35;100.00;98956.66;5004394;28;20073;-64
2022/12/25 00:59:09;;;;;;;78.13;39.58;;;;;;;6.13;100.00;98909.16;5028741;28;20045;-65
2022/12/25 01:01:34;;;;;;;71.53;38.70;;;;;;;6.47;100.00;98952.41;4988833;28;20030;-62
2022/12/25 01:04:00;;;;;;;68.40;37.28;;;;;;;6.44;100.00;98953.44;5012177;28;20469;-63
2022/12/25 01:06:25;;;;;;;77.18;39.20;;;;;;;6.25;100.00;98924.69;5028340;28;20329;-61
2022/12/25 01:11:35;;;;;;;75.07;38.20;;;;;;;6.35;100.00;98964.41;5004833;28;20052;-63
2022/12/25 01:14:00;;;;;;;75.60;37.38;;;;;;;6.40;100.00;98957.16;5023564;28;20030;-62
2022/12/25 01:16:26;;;;;;;76.00;38.00;;;;;;;6.42;100.00;98959.66;5018397;28;20037;-63
2022/12/25 01:18:52;;;;;;;72.78;38.55;;;;;;;6.35;100.00;98974.75;5045818;28;20058;-65
2022/12/25 01:21:21;;;;;;;70.82;36.83;;;;;;;6.32;100.00;98967.25;5030183;28;20055;-63
2022/12/25 01:23:48;;;;;;;73.95;37.13;;;;;;;6.38;100.00;98971.16;5010262;28;20112;-63
2022/12/25 01:26:15;;;;;;;69.82;35.88;;;;;;;6.25;100.00;98972.00;5019719;28;20017;-65
2022/12/25 01:28:41;;;;;;;70.03;35.72;;;;;;;6.21;100.00;98968.00;5005794;28;20034;-65
2022/12/25 01:31:12;;;;;;;66.63;35.33;;;;;;;6.28;100.00;98976.13;5011293;28;20100;-65
2022/12/25 01:33:39;;;;;;;68.65;34.55;;;;;;;5.99;100.00;98940.28;5007849;28;20201;-64
2022/12/25 01:36:19;;;;;;;69.75;37.55;;;;;;;6.21;100.00;98987.84;4995620;28;20034;-63
2022/12/25 01:38:45;;;;;;;;;;;;;;;6.28;100.00;98989.88;5018533;28;20038;-64
2022/12/25 01:41:12;;;;;;;67.53;34.25;;;;;;;6.31;100.00;98992.22;5028055;28;19921;-64
2022/12/25 01:43:58;;;;;;;63.03;34.20;;;;;;;6.20;100.00;98983.59;5025990;28;20120;-65
2022/12/25 01:46:23;;;;;;;59.63;32.55;;;;;;;6.30;100.00;98990.59;5002337;28;20041;-65
2022/12/25 01:48:50;;;;;;;65.25;34.17;;;;;;;6.23;100.00;98991.13;4984475;28;20025;-64
2022/12/25 01:51:27;;;;;;;70.10;36.88;;;;;;;6.01;100.00;98996.97;5005643;28;20588;-64
2022/12/25 01:53:53;;;;;;;61.58;33.65;;;;;;;6.01;100.00;98991.81;5026483;28;20021;-63
2022/12/25 01:56:19;;;;;;;61.95;33.30;;;;;;;5.88;100.00;99000.34;5021302;28;20041;-63
2022/12/25 01:58:44;;;;;;;65.22;33.72;;;;;;;5.64;100.00;99005.44;5025633;28;20029;-63
2022/12/25 02:01:10;;;;;;;64.07;33.00;;;;;;;5.54;100.00;98947.66;5017466;28;20041;-64
2022/12/25 02:03:35;;;;;;;63.80;33.72;;;;;;;5.93;100.00;98997.44;5025646;28;20082;-64
2022/12/25 02:06:03;;;;;;;60.13;32.65;;;;;;;5.85;100.00;98997.97;5023148;28;20143;-63
2022/12/25 02:08:28;;;;;;;65.78;33.35;;;;;;;5.92;100.00;98998.38;5004341;28;20492;-63
2022/12/25 02:10:54;;;;;;;56.08;31.58;;;;;;;5.95;100.00;99003.31;5036271;28;20098;-63
2022/12/25 02:13:19;;;;;;;55.53;31.95;;;;;;;5.96;100.00;99007.59;5025871;28;20033;-63
2022/12/25 02:16:05;;;;;;;59.20;32.38;;;;;;;6.00;100.00;99003.06;5022229;28;20037;-64
2022/12/25 02:18:45;;;;;;;52.22;29.45;;;;;;;5.97;100.00;99001.53;5023968;28;20034;-63
2022/12/25 02:21:17;;;;;;;;;;;;;;;6.00;100.00;99003.06;5028108;28;20459;-63
2022/12/25 02:24:01;;;;;;;53.55;29.48;;;;;;;5.91;100.00;99000.16;5026309;28;19925;-64
2022/12/25 02:26:45;;;;;;;60.72;30.75;;;;;;;5.93;100.00;99000.03;5028649;28;20425;-66
2022/12/25 02:29:24;;;;;;;59.03;30.90;;;;;;;5.89;100.00;99001.19;5027499;28;20045;-62
2022/12/25 02:31:55;;;;;;;56.05;30.48;;;;;;;6.01;100.00;99004.72;5037245;28;20069;-63
2022/12/25 02:34:42;;;;;;;53.25;29.20;;;;;;;5.88;100.00;98976.31;5015030;28;20044;-62
2022/12/25 02:37:12;;;;;;;49.83;29.38;;;;;;;5.85;100.00;99003.13;5027801;28;20045;-64
2022/12/25 02:40:14;;;;;;;58.17;29.52;;;;;;;5.90;100.00;98990.75;5018886;28;20043;-63
2022/12/25 03:08:02;;;;;;;46.80;26.30;;;;;;;5.71;100.00;99001.53;5005511;28;20048;-64
2022/12/25 03:13:15;;;;;;;46.63;25.85;;;;;;;5.41;100.00;98964.91;5020236;28;20235;-65
2022/12/25 03:18:26;;;;;;;47.15;25.75;;;;;;;5.66;100.00;99005.31;5027326;28;20040;-64
2022/12/25 03:29:08;;;;;;;45.78;25.58;;;;;;;5.67;100.00;99002.63;5024903;28;20136;-63
2022/12/25 03:31:39;;;;;;;44.97;25.73;;;;;;;5.65;100.00;99001.91;5004534;28;20121;-63
2022/12/25 04:38:32;;;;;;;41.65;23.17;;;;;;;5.37;100.00;99010.69;5011964;28;20080;-63
2022/12/25 04:40:59;;;;;;;40.47;22.70;;;;;;;5.31;100.00;99005.91;4999930;28;20101;-64
2022/12/25 04:43:24;;;;;;;39.38;22.67;;;;;;;5.38;100.00;99004.59;5006579;28;20128;-63
2022/12/25 04:45:54;;;;;;;41.90;23.85;;;;;;;5.33;100.00;99016.97;5014308;28;20124;-64
2022/12/25 04:48:20;;;;;;;43.33;23.50;;;;;;;5.16;100.00;99002.59;5031299;28;20041;-65
2022/12/25 04:50:46;;;;;;;39.00;22.92;;;;;;;5.15;100.00;99006.94;5006868;28;20537;-66
2022/12/25 04:53:11;;;;;;;36.97;23.75;;;;;;;5.11;100.00;98995.19;4992010;28;20436;-65
2022/12/25 04:55:36;;;;;;;40.20;22.95;;;;;;;5.15;100.00;99003.56;5030205;28;20033;-64
2022/12/25 04:58:02;;;;;;;38.63;24.05;;;;;;;5.18;100.00;99008.47;5008118;28;20087;-64
2022/12/25 05:00:28;;;;;;;39.60;21.92;;;;;;;5.23;100.00;99013.34;5026689;28;20052;-64
2022/12/25 05:02:53;;;;;;;38.05;21.27;;;;;;;5.12;100.00;98989.09;5000068;28;20503;-63
2022/12/25 05:05:18;;;;;;;33.13;20.10;;;;;;;5.23;100.00;99014.16;5026062;28;20033;-62
2022/12/25 05:07:44;;;;;;;38.08;20.90;;;;;;;5.29;100.00;99007.78;5028488;28;20033;-63
2022/12/25 05:10:10;;;;;;;34.38;21.40;;;;;;;5.32;100.00;99010.16;5006333;28;20040;-64
2022/12/25 05:12:35;;;;;;;35.15;20.63;;;;;;;5.23;100.00;99006.44;4989490;28;20073;-63
2022/12/25 05:15:01;;;;;;;40.20;21.13;;;;;;;5.17;100.00;99001.69;5048718;28;20499;-64
2022/12/25 05:17:26;;;;;;;37.55;21.75;;;;;;;5.16;100.00;99016.31;5041224;28;20040;-63
2022/12/25 05:19:51;;;;;;;39.13;21.58;;;;;;;4.85;100.00;99012.31;5009007;28;20034;-63
2022/12/25 05:22:17;;;;;;;39.20;21.15;;;;;;;4.78;100.00;99021.38;5026437;28;20052;-63
2022/12/25 05:24:42;;;;;;;37.55;22.25;;;;;;;4.79;100.00;99018.69;5018474;28;20037;-61
2022/12/25 05:27:08;;;;;;;41.17;22.05;;;;;;;4.79;100.00;99015.31;5037384;28;20112;-64
2022/12/25 05:29:33;;;;;;;37.22;20.92;;;;;;;4.59;100.00;98977.94;5023933;28;20499;-63
2022/12/25 05:31:58;;;;;;;34.92;19.25;;;;;;;4.97;100.00;99024.44;5028073;28;20132;-63
2022/12/25 05:34:24;;;;;;;36.33;19.65;;;;;;;4.89;100.00;99000.06;5027271;28;20026;-62
2022/12/25 05:36:49;;;;;;;32.33;19.02;;;;;;;4.77;100.00;98974.19;4996630;28;20034;-63
2022/12/25 05:39:15;;;;;;;35.10;19.52;;;;;;;4.97;100.00;99021.84;5008958;28;20116;-62
2022/12/25 05:41:40;;;;;;;36.28;20.20;;;;;;;5.00;100.00;99026.81;5007406;28;20109;-63
2022/12/25 05:44:05;;;;;;;35.33;18.15;;;;;;;4.94;100.00;99028.94;5042154;28;20036;-62
2022/12/25 05:46:31;;;;;;;32.63;18.52;;;;;;;4.88;100.00;99027.59;5040533;28;20036;-65
2022/12/25 05:48:56;;;;;;;33.25;18.40;;;;;;;4.89;100.00;99028.41;5004696;28;20065;-65
2022/12/25 05:51:22;;;;;;;33.17;18.60;;;;;;;4.70;100.00;99031.34;5045397;28;20318;-63
2022/12/25 05:53:47;;;;;;;31.52;17.88;;;;;;;4.81;100.00;99039.22;5013957;28;20059;-64
2022/12/25 05:56:13;;;;;;;32.63;18.33;;;;;;;4.90;100.00;99032.66;5029499;28;20069;-64
2022/12/25 05:58:38;;;;;;;35.20;19.35;;;;;;;4.97;100.00;99039.06;5006313;28;20064;-65
2022/12/25 06:01:10;;;;;;;31.63;18.08;;;;;;;4.98;100.00;99040.72;5030403;28;20037;-64
2022/12/25 06:03:36;;;;;;;31.08;17.48;;;;;;;5.03;100.00;99048.97;5004110;28;20030;-63
2022/12/25 06:06:02;;;;;;;34.78;17.98;;;;;;;4.99;100.00;99055.25;5013477;28;20029;-63
2022/12/25 06:08:27;;;;;;;32.40;18.15;;;;;;;4.73;100.00;99044.88;5012038;28;20399;-63
2022/12/25 06:10:53;;;;;;;32.40;17.15;;;;;;;4.85;100.00;99053.56;4995098;28;20059;-65
2022/12/25 06:13:18;;;;;;;31.17;18.13;;;;;;;4.90;100.00;99048.13;4995428;28;20075;-65
2022/12/25 06:15:43;;;;;;;32.40;18.05;;;;;;;4.85;100.00;99047.59;5029061;28;20037;-64
2022/12/25 06:18:09;;;;;;;31.92;18.83;;;;;;;4.75;100.00;99044.78;5027978;28;20358;-63
2022/12/25 06:20:35;;;;;;;33.35;17.98;;;;;;;4.70;100.00;99024.44;5017210;28;20064;-63
2022/12/25 06:23:01;;;;;;;28.90;18.20;;;;;;;4.94;100.00;99054.72;5029853;28;20436;-64
2022/12/25 06:25:26;;;;;;;30.17;17.63;;;;;;;4.92;100.00;99059.97;5041600;28;20396;-63
2022/12/25 06:27:51;;;;;;;31.05;18.67;;;;;;;4.95;100.00;99061.53;5042589;28;20168;-63
2022/12/25 06:30:17;;;;;;;31.92;18.38;;;;;;;4.93;100.00;99065.97;5044890;28;20511;-62
2022/12/25 06:32:42;;;;;;;31.38;18.38;;;;;;;4.94;100.00;99070.19;5027562;28;20186;-65
2022/12/25 06:35:08;;;;;;;33.40;17.67;;;;;;;5.00;100.00;99074.94;5028696;28;20154;-64
2022/12/25 06:37:33;;;;;;;28.08;17.52;;;;;;;4.99;100.00;99073.31;5030807;28;20049;-64
2022/12/25 06:39:59;;;;;;;33.53;17.88;;;;;;;4.88;100.00;99071.41;4994260;28;20037;-64
2022/12/25 06:42:24;;;;;;;30.73;18.25;;;;;;;4.88;100.00;99086.88;5043561;28;20040;-66
2022/12/25 06:44:50;;;;;;;31.77;18.13;;;;;;;4.67;100.00;99091.59;4998265;28;20125;-63
2022/12/25 06:47:16;;;;;;;31.58;18.15;;;;;;;4.80;100.00;99095.09;4995163;28;20076;-64
2022/12/25 06:49:41;;;;;;;30.63;18.10;;;;;;;4.76;100.00;99093.63;5028253;28;20040;-65
2022/12/25 06:52:07;;;;;;;31.65;18.20;;;;;;;4.80;100.00;99089.09;5020767;28;20045;-64
2022/12/25 06:54:32;;;;;;;34.38;19.48;;;;;;;4.89;100.00;99083.38;5007195;28;20037;-65
2022/12/25 06:56:58;;;;;;;33.85;19.30;;;;;;;4.85;100.00;99081.91;5030387;28;20437;-65
2022/12/25 06:59:23;;;;;;;30.10;17.13;;;;;;;4.72;100.00;99084.41;5041922;28;20056;-65
2022/12/25 07:01:51;;;;;;;26.35;16.88;;;;;;;4.72;100.00;99078.44;5045561;28;20033;-64
2022/12/25 07:04:23;;;;;;;29.10;17.15;;;;;;;4.82;100.00;99087.25;5005751;28;20490;-64
2022/12/25 07:06:49;;;;;;;34.03;18.20;;;;;;;4.58;100.00;99053.53;5010959;28;20065;-64
2022/12/25 07:09:14;;;;;;;32.47;18.67;;;;;;;4.88;100.00;99097.19;5028615;28;20124;-65
2022/12/25 07:11:40;;;;;;;30.00;18.25;;;;;;;4.66;100.00;99071.13;5024441;28;20060;-65
2022/12/25 07:14:05;;;;;;;32.10;18.73;;;;;;;4.88;100.00;99109.25;4987891;28;20240;-64
2022/12/25 07:16:31;;;;;;;30.20;18.00;;;;;;;4.90;100.00;99113.34;5022358;28;20064;-64
2022/12/25 07:18:59;;;;;;;29.40;17.08;;;;;;;4.97;100.00;99108.66;5013173;28;20594;-66
2022/12/25 07:21:24;;;;;;;32.95;17.67;;;;;;;4.97;100.00;99111.25;5021904;28;20494;-65
2022/12/25 07:23:50;;;;;;;30.08;18.15;;;;;;;5.07;100.00;99112.28;5022194;28;20052;-64
2022/12/25 07:26:18;;;;;;;31.73;17.55;;;;;;;5.06;100.00;99113.22;5017369;28;20480;-65
2022/12/25 07:28:44;;;;;;;31.58;18.38;;;;;;;5.03;100.00;99110.84;5027962;28;20044;-65
2022/12/25 07:31:14;;;;;;;28.73;17.15;;;;;;;4.99;100.00;99112.78;4979399;28;20055;-67
2022/12/25 07:33:40;;;;;;;29.02;18.23;;;;;;;5.01;100.00;99115.25;5016472;28;20894;-66
2022/12/25 07:36:06;;;;;;;29.35;18.17;;;;;;;4.99;100.00;99119.69;5006628;28;20097;-67
2022/12/25 07:38:32;;;;;;;30.80;18.63;;;;;;;5.01;100.00;99112.69;4990167;28;20026;-67
2022/12/25 07:40:58;;;;;;;26.98;16.08;;;;;;;4.85;100.00;99078.50;5013715;28;20499;-67
2022/12/25 07:43:24;;;;;;;28.95;16.58;;;;;;;4.95;100.00;99107.94;5000789;28;20063;-67
2022/12/25 07:45:57;;;;;;;26.27;16.70;;;;;;;5.07;100.00;99120.03;5001429;28;20029;-66
2022/12/25 07:48:23;;;;;;;30.00;16.90;;;;;;;5.03;100.00;99112.59;4996573;28;20119;-64
2022/12/25 07:50:57;;;;;;;32.28;16.27;;;;;;;5.14;100.00;99129.03;5008993;28;20192;-63
2022/12/25 07:53:23;;;;;;;28.25;16.60;;;;;;;5.06;100.00;99122.72;5027798;28;20037;-66
2022/12/25 07:55:55;;;;;;;27.98;16.63;;;;;;;5.09;100.00;99120.78;4999221;28;20440;-65
2022/12/25 07:58:21;;;;;;;28.33;16.77;;;;;;;5.19;100.00;99132.13;5034313;28;20032;-64
2022/12/25 08:00:46;;;;;;;30.33;16.95;;;;;;;5.26;100.00;99131.75;5006556;28;20033;-65
2022/12/25 08:03:14;;;;;;;29.48;17.90;;;;;;;5.20;100.00;99133.81;4991621;28;20041;-64
2022/12/25 08:05:39;;;;;;;32.60;17.25;;;;;;;4.95;100.00;99084.75;5023199;28;20440;-66
2022/12/25 08:08:05;;;;;;;29.95;17.88;;;;;;;5.30;100.00;99134.03;5006036;28;20033;-68
2022/12/25 08:10:30;;;;;;;29.77;17.65;;;;;;;5.09;100.00;99104.47;5005998;28;20045;-68
2022/12/25 08:12:56;;;;;;;27.98;17.80;;;;;;;5.27;100.00;99135.97;4994436;28;20037;-67
2022/12/25 08:15:21;;;;;;;29.40;17.35;;;;;;;5.33;100.00;99144.16;4953829;28;20483;-68
2022/12/25 08:17:47;;;;;;;29.52;17.77;;;;;;;5.39;100.00;99150.69;4992124;28;20152;-67
2022/12/25 08:20:12;;;;;;;31.95;18.27;;;;;;;5.44;100.00;99142.63;4969498;28;20049;-67
2022/12/25 08:22:38;;;;;;;33.42;18.40;;;;;;;5.25;100.00;99130.91;5014449;28;20071;-64
2022/12/25 08:25:03;;;;;;;33.00;19.05;;;;;;;5.39;100.00;99155.84;5000402;28;20058;-67
2022/12/25 08:27:29;;;;;;;32.33;19.00;;;;;;;5.51;100.00;99167.09;5007793;28;20510;-63
2022/12/25 08:29:55;;;;;;;29.05;18.77;;;;;;;5.48;100.00;99162.16;5037953;28;20033;-63
2022/12/25 08:32:20;;;;;;;33.65;19.90;;;;;;;5.38;100.00;99167.91;5047500;28;20086;-64
2022/12/25 08:34:46;;;;;;;32.13;18.95;;;;;;;5.44;100.00;99161.53;4993701;28;20033;-64
2022/12/25 08:37:11;;;;;;;28.58;18.60;;;;;;;5.55;100.00;99166.00;5025810;28;20465;-63
2022/12/25 08:39:37;;;;;;;30.40;19.80;;;;;;;5.61;100.00;99168.16;4988735;28;20352;-63
2022/12/25 08:42:02;;;;;;;29.05;18.23;;;;;;;5.62;100.00;99169.00;5023281;28;20021;-64
2022/12/25 08:44:27;;;;;;;32.30;19.40;;;;;;;5.71;100.00;99163.22;5029769;28;20406;-63
2022/12/25 08:46:53;;;;;;;33.22;20.05;;;;;;;5.46;100.00;99126.16;4991009;28;20490;-66
2022/12/25 08:49:18;;;;;;;29.23;19.88;;;;;;;5.69;100.00;99159.94;5023711;28;20041;-64
2022/12/25 08:51:44;;;;;;;33.28;20.05;;;;;;;5.56;100.00;99140.06;5028429;28;20108;-64
2022/12/25 08:54:10;;;;;;;30.67;20.45;;;;;;;5.87;100.00;99184.53;5028508;28;20041;-64
2022/12/25 08:56:35;;;;;;;33.90;20.70;;;;;;;5.91;100.00;99180.84;5023562;28;20036;-64
2022/12/25 08:59:01;;;;;;;36.47;20.40;;;;;;;5.93;100.00;99183.28;5006414;28;20040;-66
2022/12/25 09:01:27;;;;;;;31.10;19.65;;;;;;;6.05;100.00;99197.19;5027405;28;20311;-64
2022/12/25 09:03:52;;;;;;;32.38;20.42;;;;;;;5.99;100.00;99182.09;5004655;28;20037;-66
2022/12/25 09:06:18;;;;;;;29.90;18.38;;;;;;;6.11;100.00;99199.34;4989157;28;20055;-65
2022/12/25 09:08:43;;;;;;;30.83;18.52;;;;;;;6.10;100.00;99200.28;5010493;28;20469;-67
2022/12/25 09:11:11;;;;;;;28.15;18.27;;;;;;;6.12;100.00;99199.25;5042534;28;20037;-65
2022/12/25 09:13:37;;;;;;;30.42;17.67;;;;;;;6.16;100.00;99202.47;4987185;28;20033;-65
2022/12/25 09:16:08;;;;;;;27.25;18.27;;;;;;;6.16;100.00;99207.63;5027452;28;20045;-66
2022/12/25 09:18:34;;;;;;;28.95;18.33;;;;;;;6.22;100.00;99206.38;4989557;28;20415;-65
2022/12/25 09:21:02;;;;;;;30.55;18.15;;;;;;;6.28;100.00;99200.81;5025403;28;20041;-67
2022/12/25 09:23:27;;;;;;;29.25;17.95;;;;;;;6.24;100.00;99197.63;5007586;28;20052;-66
2022/12/25 09:25:53;;;;;;;31.60;19.17;;;;;;;6.45;100.00;99212.59;5022071;28;20029;-66
2022/12/25 09:28:20;;;;;;;32.00;18.25;;;;;;;6.44;100.00;99222.09;5021199;28;20083;-64
2022/12/25 09:30:45;;;;;;;28.40;17.75;;;;;;;6.40;100.00;99207.72;5010679;28;20487;-65
2022/12/25 09:33:10;;;;;;;29.23;18.33;;;;;;;6.49;100.00;99222.59;5006184;28;20049;-63
2022/12/25 09:35:36;;;;;;;27.50;17.00;;;;;;;6.49;100.00;99214.84;5016020;28;20022;-63
2022/12/25 09:38:01;;;;;;;19.73;12.52;;;;;;;6.64;100.00;99220.75;5045988;28;20038;-64
2022/12/25 09:40:29;;;;;;;16.63;10.85;;;;;;;6.83;100.00;99219.50;5013226;28;20029;-64
2022/12/25 09:42:55;;;;;;;15.88;9.82;;;;;;;6.79;100.00;99187.03;5040658;28;20128;-64
2022/12/25 09:45:28;;;;;;;15.25;9.05;;;;;;;7.00;100.00;99193.28;5043594;28;20033;-64
2022/12/25 09:47:55;;;;;;;14.30;9.15;;;;;;;7.23;100.00;99225.28;5017662;28;20045;-64
2022/12/25 09:50:41;;;;;;;12.85;8.77;;;;;;;7.25;100.00;99223.41;5018759;28;20110;-65
2022/12/25 09:53:15;;;;;;;13.63;8.18;;;;;;;7.33;100.00;99215.09;5031539;28;20038;-63
2022/12/25 09:56:08;;;;;;;13.93;8.20;;;;;;;7.32;100.00;99221.25;5004397;28;20476;-62
2022/12/25 09:58:33;;;;;;;12.65;8.18;;;;;;;7.37;100.00;99218.31;5021312;28;20038;-64
2022/12/25 10:01:19;;;;;;;12.57;7.80;;;;;;;7.45;100.00;99214.25;5014104;28;20030;-63
2022/12/25 10:04:06;;;;;;;13.02;8.27;;;;;;;7.48;100.00;99216.63;5008130;28;20145;-64
2022/12/25 10:06:58;;;;;;;11.02;7.00;;;;;;;7.53;100.00;99218.84;5041748;28;20029;-63
2022/12/25 10:09:37;;;;;;;11.45;7.45;;;;;;;7.56;100.00;99215.25;5006216;28;20047;-64
2022/12/25 10:12:08;;;;;;;12.48;7.53;;;;;;;7.69;100.00;99213.41;5013149;28;20124;-64
2022/12/25 10:14:59;;;;;;;12.00;7.00;;;;;;;7.76;100.00;99219.78;5008513;28;20033;-63
2022/12/25 10:17:52;;;;;;;12.70;8.18;;;;;;;7.49;100.00;99176.84;5022443;28;20487;-62
2022/12/25 10:20:28;;;;;;;11.02;6.95;;;;;;;7.65;100.00;99210.22;5005847;28;20128;-63
2022/12/25 10:22:57;;;;;;;11.10;6.70;;;;;;;7.71;100.00;99221.88;5021700;28;20449;-63
2022/12/25 10:25:24;;;;;;;11.73;7.57;;;;;;;7.64;100.00;99220.69;5007242;28;20033;-63
2022/12/25 10:27:53;;;;;;;10.45;6.55;;;;;;;7.66;100.00;99221.38;5003051;28;20067;-64
2022/12/25 10:30:21;;;;;;;11.63;7.05;;;;;;;7.65;100.00;99220.56;5029190;28;20060;-64
2022/12/25 10:32:47;;;;;;;11.57;7.03;;;;;;;7.60;100.00;99232.19;5009691;28;20032;-67
2022/12/25 10:35:18;;;;;;;10.48;6.85;;;;;;;7.66;100.00;99232.56;4997094;28;20029;-66
2022/12/25 10:37:47;;;;;;;11.00;7.10;;;;;;;7.61;100.00;99223.47;5013150;28;20072;-64
2022/12/25 10:40:32;;;;;;;10.80;6.50;;;;;;;7.69;100.00;99221.16;5008758;28;20040;-63
2022/12/25 10:43:11;;;;;;;12.13;7.15;;;;;;;7.68;100.00;99219.50;5020164;28;20587;-63
2022/12/25 10:45:47;;;;;;;11.68;7.38;;;;;;;7.60;100.00;99214.06;5022690;28;20508;-63
2022/12/25 10:48:20;;;;;;;11.30;7.20;;;;;;;7.61;100.00;99215.72;5019111;28;20242;-62
2022/12/25 10:50:46;;;;;;;9.02;6.10;;;;;;;7.65;100.00;99202.44;5027377;28;20025;-64
2022/12/25 10:53:39;;;;;;;11.98;6.75;;;;;;;7.74;100.00;99198.38;5010730;28;20512;-62
2022/12/25 10:56:05;;;;;;;10.60;6.90;;;;;;;7.69;100.00;99203.06;5018091;28;20121;-62
2022/12/25 10:58:32;;;;;;;11.18;6.35;;;;;;;7.77;100.00;99211.06;5043365;28;20175;-63
2022/12/25 11:01:01;;;;;;;10.80;6.65;;;;;;;7.80;100.00;99218.63;5004476;28;20030;-63
2022/12/25 11:03:32;;;;;;;9.95;6.10;;;;;;;7.84;100.00;99209.69;5010679;28;20095;-62
2022/12/25 11:05:58;;;;;;;10.93;7.45;;;;;;;7.77;100.00;99194.72;5008346;28;20029;-63
2022/12/25 11:08:25;;;;;;;11.50;7.40;;;;;;;7.81;100.00;99191.81;5027573;28;20088;-62
2022/12/25 11:11:05;;;;;;;11.70;7.40;;;;;;;7.85;100.00;99187.22;5044069;28;20037;-62
2022/12/25 11:13:31;;;;;;;;;;;;;;;7.87;100.00;99181.00;5029026;28;20025;-63
2022/12/25 11:16:09;;;;;;;11.40;7.15;;;;;;;7.89;100.00;99181.69;5042980;28;19967;-63
2022/12/25 11:18:45;;;;;;;11.38;6.45;;;;;;;7.70;100.00;99145.16;5022958;28;20060;-64
2022/12/25 11:21:21;;;;;;;13.07;7.47;;;;;;;7.93;100.00;99173.72;5035292;28;20840;-63
2022/12/25 11:23:54;;;;;;;11.27;7.07;;;;;;;7.84;100.00;99172.63;5027180;28;20112;-64
2022/12/25 11:26:19;;;;;;;11.68;7.78;;;;;;;7.66;100.00;99130.78;5010679;28;20038;-63
2022/12/25 11:28:45;;;;;;;13.63;8.18;;;;;;;7.99;100.00;99166.28;5009580;28;20044;-63
2022/12/25 11:31:18;;;;;;;12.40;7.65;;;;;;;7.64;100.00;99112.78;5031063;28;20388;-62
2022/12/25 11:34:09;;;;;;;14.82;8.18;;;;;;;7.96;100.00;99168.28;5015285;28;20052;-63
2022/12/25 11:36:49;;;;;;;12.13;8.05;;;;;;;7.94;100.00;99165.84;4989631;28;20033;-63
2022/12/25 11:39:26;;;;;;;;;;;;;;;7.95;100.00;99170.06;5023251;28;20029;-63
2022/12/25 11:42:00;;;;;;;12.40;6.60;;;;;;;8.00;100.00;99167.13;5017979;28;20292;-63
2022/12/25 11:44:49;;;;;;;14.02;9.48;;;;;;;8.04;100.00;99166.78;5014199;28;20373;-63
2022/12/25 11:47:25;;;;;;;15.68;10.02;;;;;;;7.88;100.00;99148.16;5027244;28;20072;-63
2022/12/25 11:49:58;;;;;;;14.55;9.57;;;;;;;7.69;100.00;99099.50;5013011;28;20036;-64
2022/12/25 11:52:28;;;;;;;13.70;9.48;;;;;;;8.06;100.00;99148.53;5017068;28;20129;-63
2022/12/25 11:55:13;;;;;;;13.70;9.23;;;;;;;8.04;100.00;99147.84;5018361;28;20037;-64
2022/12/25 11:57:39;;;;;;;15.95;9.63;;;;;;;7.93;100.00;99150.41;5009648;28;20029;-63
2022/12/25 12:00:08;;;;;;;13.15;8.32;;;;;;;7.83;100.00;99108.81;5027132;28;20041;-63
2022/12/25 12:02:39;;;;;;;13.37;8.80;;;;;;;8.07;100.00;99148.44;5026337;28;20140;-64
2022/12/25 12:05:18;;;;;;;14.13;8.65;;;;;;;7.91;100.00;99118.63;5020093;28;20087;-63
2022/12/25 12:08:04;;;;;;;11.60;7.65;;;;;;;8.18;100.00;99155.38;5001031;28;20063;-64
2022/12/25 12:10:46;;;;;;;11.88;6.95;;;;;;;7.91;100.00;99098.72;5015926;28;20040;-63
2022/12/25 12:13:30;;;;;;;14.80;8.05;;;;;;;8.21;100.00;99143.97;5043552;28;20044;-63
2022/12/25 12:15:57;;;;;;;11.40;7.43;;;;;;;8.04;100.00;99104.63;5031597;28;20033;-64
2022/12/25 12:18:29;;;;;;;12.88;7.70;;;;;;;8.20;100.00;99125.00;5007089;28;20033;-64
2022/12/25 12:20:58;;;;;;;12.65;8.27;;;;;;;8.22;100.00;99128.31;5036614;28;20060;-63
2022/12/25 12:23:23;;;;;;;15.98;8.25;;;;;;;8.30;100.00;99126.91;4997411;28;20056;-64
2022/12/25 12:25:49;;;;;;;12.45;8.13;;;;;;;8.24;100.00;99121.22;5004273;28;20456;-64
2022/12/25 12:28:30;;;;;;;13.85;8.18;;;;;;;8.22;100.00;99132.66;5025290;28;20144;-63
2022/12/25 12:31:01;;;;;;;14.60;8.80;;;;;;;8.17;100.00;99122.63;5023518;28;20095;-64
2022/12/25 12:33:31;;;;;;;15.00;8.70;;;;;;;8.21;100.00;99124.09;5035925;28;20141;-63
2022/12/25 12:35:56;;;;;;;17.20;10.25;;;;;;;8.21;100.00;99120.66;5007558;28;20021;-64
2022/12/25 12:38:23;;;;;;;17.00;10.40;;;;;;;8.22;100.00;99127.50;5010991;28;20056;-63
2022/12/25 12:41:02;;;;;;;15.38;10.60;;;;;;;8.20;100.00;99113.84;5017546;28;20088;-65
2022/12/25 12:43:37;;;;;;;17.25;11.13;;;;;;;8.17;100.00;99116.66;5005572;28;20024;-64
2022/12/25 12:46:06;;;;;;;17.23;11.02;;;;;;;8.27;100.00;99127.97;5016664;28;20045;-63
2022/12/25 12:48:38;;;;;;;16.67;10.95;;;;;;;8.19;100.00;99118.16;5025290;28;20057;-64
2022/12/25 12:51:29;;;;;;;16.50;11.20;;;;;;;8.28;100.00;99122.63;4996652;28;20395;-64
2022/12/25 12:54:21;;;;;;;17.30;10.75;;;;;;;8.30;100.00;99129.50;5027981;28;20049;-64
2022/12/25 12:57:05;;;;;;;16.45;11.90;;;;;;;8.30;100.00;99134.66;5040790;28;20030;-63
2022/12/25 12:59:40;;;;;;;22.38;13.82;;;;;;;8.09;100.00;99093.94;5034905;28;20034;-63
2022/12/25 13:02:48;;;;;;;23.13;14.57;;;;;;;8.30;100.00;99137.25;5041488;28;20120;-63
2022/12/25 13:05:25;;;;;;;22.90;14.32;;;;;;;8.32;100.00;99130.19;5025284;28;20061;-65
2022/12/25 13:07:53;;;;;;;23.65;14.70;;;;;;;8.28;100.00;99134.78;5004943;28;20120;-63
2022/12/25 13:10:32;;;;;;;21.98;14.65;;;;;;;8.27;100.00;99131.38;5028542;28;20025;-63
2022/12/25 13:13:00;;;;;;;21.80;13.88;;;;;;;8.23;100.00;99135.16;5026639;28;20040;-64
2022/12/25 13:15:29;;;;;;;21.40;13.55;;;;;;;8.20;100.00;99122.41;5007836;28;20060;-66
2022/12/25 13:18:04;;;;;;;20.65;14.05;;;;;;;8.28;100.00;99140.78;5002145;28;20124;-63